createdAt,value
2023-05-20T00:01:07.248Z,96421.81
2023-05-20T00:03:35.266Z,96430.91
2023-05-20T00:06:03.651Z,96423.53
2023-05-20T00:08:31.442Z,96422.47
2023-05-20T00:10:59.547Z,96420.78
2023-05-20T00:13:28.772Z,96424.41
2023-05-20T00:15:56.525Z,96423.69
2023-05-20T00:18:24.737Z,96422.53
2023-05-20T00:20:54.064Z,96420.28
2023-05-20T00:23:22.270Z,96422.31
2023-05-20T00:25:50.629Z,96408.81
2023-05-20T00:28:19.810Z,96409.78
2023-05-20T00:30:49.058Z,96405.97
2023-05-20T00:33:16.953Z,96398.69
2023-05-20T00:35:44.751Z,96403.19
2023-05-20T00:38:12.599Z,96407.16
2023-05-20T00:40:40.463Z,96403.84
2023-05-20T00:43:08.299Z,96407.66
2023-05-20T00:45:36.311Z,96404.53
2023-05-20T00:48:06.801Z,96402.63
2023-05-20T00:50:35.711Z,96390.53
2023-05-20T00:53:04.196Z,96394.91
2023-05-20T00:55:32.629Z,96382.81
2023-05-20T00:58:00.774Z,96371.06
2023-05-20T01:00:28.658Z,96380.56
2023-05-20T01:02:57.375Z,96382.09
2023-05-20T01:05:26.702Z,96383.88
2023-05-20T01:07:54.771Z,96385.91
2023-05-20T01:10:25.249Z,96380.88
2023-05-20T01:12:58.087Z,96357.28
2023-05-20T01:15:28.686Z,96372.97
2023-05-20T01:18:02.718Z,96370.19
2023-05-20T01:20:33.297Z,96367.22
2023-05-20T01:23:02.735Z,96374.91
2023-05-20T01:25:30.899Z,96374.09
2023-05-20T01:27:59.125Z,96362.88
2023-05-20T01:30:32.018Z,96373.47
2023-05-20T01:33:07.109Z,96373.59
2023-05-20T01:35:36.592Z,96373.59
2023-05-20T01:38:07.235Z,96373.59
2023-05-20T01:40:36.160Z,96366.41
2023-05-20T01:43:05.312Z,96353.41
2023-05-20T01:45:33.360Z,96349.53
2023-05-20T01:48:01.746Z,96377.66
2023-05-20T01:50:29.605Z,96380.59
2023-05-20T01:52:57.439Z,96377.34
2023-05-20T01:55:26.736Z,96354.69
2023-05-20T01:57:54.571Z,96359.66
2023-05-20T02:00:22.831Z,96358.00
2023-05-20T02:02:51.130Z,96354.75
2023-05-20T02:05:19.389Z,96347.91
2023-05-20T02:07:47.195Z,96340.84
2023-05-20T02:10:14.965Z,96343.84
2023-05-20T02:12:44.481Z,96337.00
2023-05-20T02:15:12.709Z,96338.75
2023-05-20T02:17:43.798Z,96346.75
2023-05-20T02:20:13.901Z,96344.09
2023-05-20T02:22:41.906Z,96345.97
2023-05-20T02:25:10.877Z,96339.00
2023-05-20T02:27:39.933Z,96335.41
2023-05-20T02:30:10.529Z,96350.06
2023-05-20T02:32:38.487Z,96340.53
2023-05-20T02:35:07.130Z,96330.06
2023-05-20T02:37:35.480Z,96322.72
2023-05-20T02:40:03.403Z,96346.88
2023-05-20T02:42:31.321Z,96345.22
2023-05-20T02:44:59.126Z,96351.16
2023-05-20T02:47:28.860Z,96352.41
2023-05-20T02:49:56.896Z,96356.59
2023-05-20T02:52:24.718Z,96352.16
2023-05-20T02:54:52.888Z,96356.34
2023-05-20T02:57:21.041Z,96365.84
2023-05-20T02:59:48.989Z,96369.44
2023-05-20T03:02:16.825Z,96359.69
2023-05-20T03:04:47.424Z,96347.50
2023-05-20T03:07:19.453Z,96352.25
2023-05-20T03:09:47.363Z,96344.16
2023-05-20T03:12:15.230Z,96347.50
2023-05-20T03:14:43.008Z,96337.84
2023-05-20T03:17:11.694Z,96353.28
2023-05-20T03:19:39.499Z,96351.19
2023-05-20T03:22:08.824Z,96345.56
2023-05-20T03:24:36.694Z,96342.75
2023-05-20T03:27:04.754Z,96333.13
2023-05-20T03:29:33.868Z,96335.91
2023-05-20T03:32:02.321Z,96326.75
2023-05-20T03:34:30.295Z,96338.94
2023-05-20T03:37:00.234Z,96327.56
2023-05-20T03:39:29.596Z,96322.31
2023-05-20T03:41:57.321Z,96337.41
2023-05-20T03:44:25.132Z,96336.81
2023-05-20T03:46:53.048Z,96325.69
2023-05-20T03:49:20.905Z,96327.31
2023-05-20T03:51:48.685Z,96329.84
2023-05-20T03:54:17.480Z,96339.06
2023-05-20T03:56:48.095Z,96331.63
2023-05-20T03:59:15.939Z,96322.59
2023-05-20T04:01:43.839Z,96347.44
2023-05-20T04:04:11.701Z,96344.09
2023-05-20T04:06:40.469Z,96345.00
2023-05-20T04:09:08.277Z,96341.31
2023-05-20T04:11:36.046Z,96326.34
2023-05-20T04:14:05.441Z,96320.66
2023-05-20T04:16:33.724Z,96331.94
2023-05-20T04:19:02.812Z,96331.56
2023-05-20T04:21:31.512Z,96342.03
2023-05-20T04:23:59.434Z,96338.53
2023-05-20T04:26:27.378Z,96339.94
2023-05-20T04:28:55.495Z,96348.53
2023-05-20T04:31:26.972Z,96350.84
2023-05-20T04:33:55.012Z,96355.03
2023-05-20T04:36:22.819Z,96348.38
2023-05-20T04:38:50.606Z,96345.06
2023-05-20T04:41:18.572Z,96343.44
2023-05-20T04:43:46.476Z,96344.72
2023-05-20T04:46:14.539Z,96337.22
2023-05-20T04:48:44.433Z,96338.06
2023-05-20T04:51:12.253Z,96347.00
2023-05-20T04:53:40.473Z,96342.22
2023-05-20T04:56:08.458Z,96332.41
2023-05-20T04:58:36.297Z,96326.69
2023-05-20T05:01:04.184Z,96333.25
2023-05-20T05:03:32.180Z,96332.84
2023-05-20T05:06:01.323Z,96328.78
2023-05-20T05:08:29.433Z,96324.88
2023-05-20T05:10:57.658Z,96327.81
2023-05-20T05:13:25.720Z,96330.78
2023-05-20T05:16:00.187Z,96317.00
2023-05-20T05:18:28.180Z,96319.59
2023-05-20T05:21:05.139Z,96316.31
2023-05-20T05:23:34.044Z,96316.88
2023-05-20T05:26:02.017Z,96312.72
2023-05-20T05:28:30.046Z,96316.16
2023-05-20T05:30:58.307Z,96301.22
2023-05-20T05:33:26.285Z,96316.69
2023-05-20T05:35:54.253Z,96313.69
2023-05-20T05:38:23.374Z,96316.31
2023-05-20T05:40:51.123Z,96307.28
2023-05-20T05:43:18.925Z,96306.31
2023-05-20T05:45:46.789Z,96304.94
2023-05-20T05:48:14.620Z,96289.41
2023-05-20T05:50:45.528Z,96303.00
2023-05-20T05:53:13.470Z,96315.97
2023-05-20T05:55:42.603Z,96316.63
2023-05-20T05:58:10.434Z,96316.06
2023-05-20T06:00:38.196Z,96316.44
2023-05-20T06:03:06.103Z,96307.41
2023-05-20T06:05:34.362Z,96319.34
2023-05-20T06:08:02.460Z,96319.41
2023-05-20T06:10:30.252Z,96317.06
2023-05-20T06:12:59.548Z,96308.22
2023-05-20T06:15:27.338Z,96305.44
2023-05-20T06:17:55.118Z,96294.44
2023-05-20T06:20:23.006Z,96293.13
2023-05-20T06:22:50.893Z,96299.97
2023-05-20T06:25:18.656Z,96291.91
2023-05-20T06:27:46.460Z,96284.59
2023-05-20T06:30:16.184Z,96278.16
2023-05-20T06:32:43.980Z,96274.88
2023-05-20T06:35:12.248Z,96275.22
2023-05-20T06:37:40.103Z,96267.91
2023-05-20T06:40:09.151Z,96261.56
2023-05-20T06:42:36.988Z,96266.06
2023-05-20T06:45:05.270Z,96263.78
2023-05-20T06:47:34.874Z,96258.16
2023-05-20T06:50:02.795Z,96264.31
2023-05-20T06:52:30.613Z,96277.69
2023-05-20T06:54:58.391Z,96281.47
2023-05-20T06:57:26.250Z,96276.38
2023-05-20T06:59:54.323Z,96278.88
2023-05-20T07:02:22.593Z,96278.34
2023-05-20T07:04:51.819Z,96284.22
2023-05-20T07:07:19.577Z,96282.22
2023-05-20T07:09:47.369Z,96277.88
2023-05-20T07:12:15.639Z,96273.47
2023-05-20T07:14:43.792Z,96272.94
2023-05-20T07:17:12.887Z,96275.66
2023-05-20T07:19:40.777Z,96268.34
2023-05-20T07:22:10.187Z,96257.09
2023-05-20T07:24:38.035Z,96256.56
2023-05-20T07:27:06.346Z,96252.31
2023-05-20T07:29:34.143Z,96256.34
2023-05-20T07:32:02.084Z,96250.19
2023-05-20T07:34:30.020Z,96260.22
2023-05-20T07:36:58.325Z,96248.44
2023-05-20T07:39:27.667Z,96271.84
2023-05-20T07:41:55.896Z,96261.28
2023-05-20T07:44:24.109Z,96252.91
2023-05-20T07:46:51.904Z,96253.53
2023-05-20T07:49:19.777Z,96248.94
2023-05-20T07:51:47.668Z,96241.94
2023-05-20T07:54:15.551Z,96242.22
2023-05-20T07:56:44.836Z,96246.00
2023-05-20T07:59:12.719Z,96241.09
2023-05-20T08:01:43.019Z,96245.75
2023-05-20T08:04:11.155Z,96241.88
2023-05-20T08:06:39.854Z,96233.06
2023-05-20T08:09:08.009Z,96226.59
2023-05-20T08:11:35.889Z,96238.72
2023-05-20T08:14:05.040Z,96240.34
2023-05-20T08:16:32.979Z,96239.22
2023-05-20T08:19:00.932Z,96232.81
2023-05-20T08:21:28.839Z,96219.03
2023-05-20T08:23:57.086Z,96238.72
2023-05-20T08:26:25.010Z,96224.72
2023-05-20T08:28:52.990Z,96241.69
2023-05-20T08:31:22.119Z,96238.72
2023-05-20T08:33:50.242Z,96237.94
2023-05-20T08:36:19.443Z,96241.44
2023-05-20T08:38:47.292Z,96239.78
2023-05-20T08:41:15.547Z,96245.94
2023-05-20T08:43:43.809Z,96227.94
2023-05-20T08:46:12.129Z,96234.41
2023-05-20T08:48:41.768Z,96244.06
2023-05-20T08:51:11.277Z,96236.56
2023-05-20T08:53:39.169Z,96239.97
2023-05-20T08:56:07.828Z,96236.50
2023-05-20T08:58:35.647Z,96231.13
2023-05-20T09:01:03.468Z,96238.13
2023-05-20T09:03:32.199Z,96226.56
2023-05-20T09:06:06.762Z,96226.31
2023-05-20T09:08:35.413Z,96224.19
2023-05-20T09:11:03.450Z,96231.16
2023-05-20T09:13:32.896Z,96229.56
2023-05-20T09:16:02.106Z,96207.34
2023-05-20T09:18:30.473Z,96225.66
2023-05-20T09:20:58.688Z,96231.63
2023-05-20T09:23:30.741Z,96219.56
2023-05-20T09:25:58.280Z,96226.28
2023-05-20T09:28:26.074Z,96222.47
2023-05-20T09:30:58.944Z,96219.63
2023-05-20T09:33:30.355Z,96224.75
2023-05-20T09:36:05.357Z,96225.69
2023-05-20T09:38:38.226Z,96221.41
2023-05-20T09:41:09.769Z,96223.81
2023-05-20T09:43:37.975Z,96210.81
2023-05-20T09:46:06.577Z,96217.97
2023-05-20T09:48:36.460Z,96213.09
2023-05-20T09:51:05.974Z,96219.44
2023-05-20T09:53:35.636Z,96222.66
2023-05-20T09:56:03.529Z,96212.22
2023-05-20T09:58:31.612Z,96203.22
2023-05-20T10:00:59.494Z,96210.50
2023-05-20T10:03:28.346Z,96200.53
2023-05-20T10:06:17.395Z,96199.59
2023-05-20T10:09:03.881Z,96197.25
2023-05-20T10:11:43.287Z,96212.19
2023-05-20T10:14:29.907Z,96199.97
2023-05-20T10:17:09.943Z,96199.81
2023-05-20T10:19:37.952Z,96204.13
2023-05-20T10:22:07.148Z,96203.72
2023-05-20T10:24:38.673Z,96194.59
2023-05-20T10:27:10.289Z,96194.84
2023-05-20T10:29:45.575Z,96205.53
2023-05-20T10:32:13.561Z,96201.97
2023-05-20T10:34:49.874Z,96208.13
2023-05-20T10:37:29.176Z,96206.03
2023-05-20T10:40:12.716Z,96203.97
2023-05-20T10:42:41.894Z,96197.34
2023-05-20T10:45:11.232Z,96193.06
2023-05-20T10:47:43.905Z,96190.00
2023-05-20T10:50:27.627Z,96196.06
2023-05-20T10:52:55.870Z,96197.13
2023-05-20T10:55:24.977Z,96185.84
2023-05-20T10:57:54.906Z,96201.97
2023-05-20T11:00:22.776Z,96191.56
2023-05-20T11:02:51.786Z,96181.09
2023-05-20T11:05:20.622Z,96180.88
2023-05-20T11:07:48.431Z,96181.19
2023-05-20T11:10:16.346Z,96180.09
2023-05-20T11:12:45.687Z,96181.41
2023-05-20T11:15:14.089Z,96170.28
2023-05-20T11:17:53.580Z,96171.00
2023-05-20T11:20:21.739Z,96156.19
2023-05-20T11:22:50.994Z,96184.22
2023-05-20T11:25:19.486Z,96179.88
2023-05-20T11:27:49.069Z,96189.03
2023-05-20T11:30:18.498Z,96175.78
2023-05-20T11:32:57.468Z,96181.03
2023-05-20T11:35:26.250Z,96181.16
2023-05-20T11:37:58.870Z,96170.53
2023-05-20T11:40:32.874Z,96173.81
2023-05-20T11:43:08.536Z,96168.09
2023-05-20T11:45:43.213Z,96172.97
2023-05-20T11:48:12.098Z,96167.19
2023-05-20T11:50:41.245Z,96174.41
2023-05-20T11:53:10.129Z,96175.31
2023-05-20T11:55:46.930Z,96168.78
2023-05-20T11:58:19.842Z,96173.03
2023-05-20T12:00:54.622Z,96175.63
2023-05-20T12:03:27.492Z,96167.44
2023-05-20T12:05:55.524Z,96173.25
2023-05-20T12:08:23.669Z,96159.41
2023-05-20T12:10:51.896Z,96165.00
2023-05-20T12:13:21.604Z,96157.88
2023-05-20T12:15:49.440Z,96157.41
2023-05-20T12:18:17.301Z,96162.97
2023-05-20T12:20:45.322Z,96161.22
2023-05-20T12:23:13.268Z,96167.75
2023-05-20T12:25:41.111Z,96159.50
2023-05-20T12:28:09.007Z,96158.03
2023-05-20T12:30:38.276Z,96145.94
2023-05-20T12:33:06.625Z,96139.66
2023-05-20T12:35:39.096Z,96136.91
2023-05-20T12:38:07.008Z,96134.81
2023-05-20T12:40:35.704Z,96146.13
2023-05-20T12:43:04.805Z,96143.41
2023-05-20T12:45:32.611Z,96145.09
2023-05-20T12:48:02.219Z,96147.22
2023-05-20T12:50:30.152Z,96151.38
2023-05-20T12:52:57.946Z,96135.09
2023-05-20T12:55:25.876Z,96143.16
2023-05-20T12:57:53.752Z,96140.59
2023-05-20T13:00:21.509Z,96123.66
2023-05-20T13:02:49.943Z,96136.19
2023-05-20T13:05:19.794Z,96136.47
2023-05-20T13:07:47.514Z,96141.69
2023-05-20T13:10:15.288Z,96133.88
2023-05-20T13:12:46.043Z,96133.06
2023-05-20T13:15:14.680Z,96129.31
2023-05-20T13:17:43.464Z,96131.97
2023-05-20T13:20:12.123Z,96124.41
2023-05-20T13:22:41.415Z,96130.25
2023-05-20T13:25:10.192Z,96113.41
2023-05-20T13:27:37.923Z,96126.38
2023-05-20T13:30:06.923Z,96130.22
2023-05-20T13:32:34.810Z,96132.75
2023-05-20T13:35:02.664Z,96125.31
2023-05-20T13:37:30.822Z,96123.38
2023-05-20T13:39:59.960Z,96124.31
2023-05-20T13:42:27.987Z,96117.94
2023-05-20T13:44:55.754Z,96121.06
2023-05-20T13:47:23.540Z,96114.41
2023-05-20T13:49:51.664Z,96113.69
2023-05-20T13:52:19.445Z,96111.34
2023-05-20T13:54:48.712Z,96104.66
2023-05-20T13:57:18.164Z,96104.69
2023-05-20T13:59:45.990Z,96094.53
2023-05-20T14:02:13.903Z,96100.59
2023-05-20T14:04:44.947Z,96105.19
2023-05-20T14:07:12.790Z,96117.72
2023-05-20T14:09:40.914Z,96120.59
2023-05-20T14:12:09.205Z,96115.94
2023-05-20T14:14:38.396Z,96128.03
2023-05-20T14:17:06.168Z,96127.78
2023-05-20T14:19:34.143Z,96127.84
2023-05-20T14:22:02.014Z,96128.72
2023-05-20T14:24:29.923Z,96122.41
2023-05-20T14:26:57.740Z,96113.94
2023-05-20T14:29:25.920Z,96108.88
2023-05-20T14:31:55.118Z,96122.94
2023-05-20T14:34:23.022Z,96129.00
2023-05-20T14:36:51.146Z,96107.78
2023-05-20T14:39:18.955Z,96119.44
2023-05-20T14:41:46.784Z,96119.06
2023-05-20T14:44:14.763Z,96117.09
2023-05-20T14:46:42.700Z,96106.63
2023-05-20T14:49:11.973Z,96113.13
2023-05-20T14:51:39.978Z,96106.78
2023-05-20T14:54:08.904Z,96112.72
2023-05-20T14:56:37.437Z,96107.88
2023-05-20T14:59:05.168Z,96100.91
2023-05-20T15:01:32.993Z,96107.31
2023-05-20T15:04:01.100Z,96110.34
2023-05-20T15:06:31.583Z,96106.53
2023-05-20T15:08:59.337Z,96115.38
2023-05-20T15:11:27.153Z,96112.53
2023-05-20T15:13:54.909Z,96112.00
2023-05-20T15:16:24.489Z,96121.97
2023-05-20T15:18:52.770Z,96122.81
2023-05-20T15:21:21.373Z,96120.03
2023-05-20T15:23:50.593Z,96125.97
2023-05-20T15:26:18.767Z,96118.97
2023-05-20T15:28:46.574Z,96124.28
2023-05-20T15:31:14.309Z,96113.97
2023-05-20T15:33:42.471Z,96127.63
2023-05-20T15:36:10.599Z,96122.13
2023-05-20T15:38:38.407Z,96118.47
2023-05-20T15:41:07.971Z,96116.00
2023-05-20T15:43:36.101Z,96123.81
2023-05-20T15:46:03.985Z,96110.03
2023-05-20T15:48:33.750Z,96106.56
2023-05-20T15:51:01.802Z,96120.28
2023-05-20T15:53:29.566Z,96109.88
2023-05-20T15:55:57.365Z,96115.44
2023-05-20T15:58:26.581Z,96109.13
2023-05-20T16:00:54.362Z,96116.25
2023-05-20T16:03:22.491Z,96116.16
2023-05-20T16:05:50.727Z,96098.06
2023-05-20T16:08:21.107Z,96113.06
2023-05-20T16:10:48.902Z,96110.84
2023-05-20T16:13:16.789Z,96107.38
2023-05-20T16:15:46.126Z,96107.16
2023-05-20T16:18:13.994Z,96106.06
2023-05-20T16:20:42.287Z,96111.53
2023-05-20T16:23:10.223Z,96108.75
2023-05-20T16:25:38.307Z,96103.75
2023-05-20T16:28:06.152Z,96112.50
2023-05-20T16:30:36.504Z,96109.94
2023-05-20T16:33:06.118Z,96110.97
2023-05-20T16:35:34.301Z,96104.44
2023-05-20T16:38:02.054Z,96098.13
2023-05-20T16:40:30.012Z,96092.44
2023-05-20T16:42:57.790Z,96089.72
2023-05-20T16:45:25.623Z,96087.50
2023-05-20T16:47:53.759Z,96099.16
2023-05-20T16:50:23.081Z,96095.34
2023-05-20T16:52:51.033Z,96095.38
2023-05-20T16:55:18.785Z,96103.13
2023-05-20T16:57:47.816Z,96104.97
2023-05-20T17:00:16.428Z,96110.25
2023-05-20T17:02:44.240Z,96107.69
2023-05-20T17:05:13.609Z,96111.53
2023-05-20T17:07:44.629Z,96107.63
2023-05-20T17:10:12.412Z,96112.34
2023-05-20T17:12:40.213Z,96112.81
2023-05-20T17:15:09.758Z,96113.53
2023-05-20T17:17:37.571Z,96106.66
2023-05-20T17:20:06.746Z,96096.66
2023-05-20T17:22:34.916Z,96107.84
2023-05-20T17:25:04.661Z,96101.47
2023-05-20T17:27:33.146Z,96110.09
2023-05-20T17:30:00.997Z,96102.03
2023-05-20T17:32:28.970Z,96105.69
2023-05-20T17:34:56.743Z,96110.94
2023-05-20T17:37:24.935Z,96104.44
2023-05-20T17:39:52.706Z,96116.38
2023-05-20T17:42:22.196Z,96116.50
2023-05-20T17:44:50.357Z,96121.75
2023-05-20T17:47:18.146Z,96116.34
2023-05-20T17:49:46.665Z,96111.06
2023-05-20T17:52:14.382Z,96114.41
2023-05-20T17:54:42.320Z,96113.56
2023-05-20T17:57:10.080Z,96114.91
2023-05-20T17:59:41.918Z,96113.31
2023-05-20T18:02:10.087Z,96106.06
2023-05-20T18:04:37.986Z,96111.97
2023-05-20T18:07:06.870Z,96113.06
2023-05-20T18:09:35.051Z,96108.44
2023-05-20T18:12:02.881Z,96110.63
2023-05-20T18:14:30.745Z,96108.44
2023-05-20T18:16:59.933Z,96104.72
2023-05-20T18:19:28.019Z,96113.66
2023-05-20T18:21:56.068Z,96116.69
2023-05-20T18:24:23.826Z,96111.25
2023-05-20T18:26:51.761Z,96114.75
2023-05-20T18:29:19.916Z,96107.50
2023-05-20T18:31:48.117Z,96114.25
2023-05-20T18:34:17.274Z,96111.84
2023-05-20T18:36:45.282Z,96115.09
2023-05-20T18:39:14.156Z,96116.44
2023-05-20T18:41:47.258Z,96113.19
2023-05-20T18:44:15.661Z,96118.69
2023-05-20T18:46:43.753Z,96115.75
2023-05-20T18:49:11.749Z,96123.81
2023-05-20T18:51:41.455Z,96113.31
2023-05-20T18:54:09.496Z,96100.66
2023-05-20T18:56:37.823Z,96113.59
2023-05-20T18:59:05.634Z,96115.78
2023-05-20T19:01:34.190Z,96114.69
2023-05-20T19:04:02.009Z,96114.97
2023-05-20T19:06:29.831Z,96110.97
2023-05-20T19:08:58.954Z,96112.31
2023-05-20T19:11:26.707Z,96116.91
2023-05-20T19:13:54.880Z,96106.66
2023-05-20T19:16:22.970Z,96120.13
2023-05-20T19:18:50.893Z,96113.38
2023-05-20T19:21:18.804Z,96109.91
2023-05-20T19:23:46.900Z,96109.91
2023-05-20T19:26:16.070Z,96119.59
2023-05-20T19:28:43.812Z,96121.78
2023-05-20T19:31:11.782Z,96126.09
2023-05-20T19:33:40.238Z,96106.72
2023-05-20T19:36:08.067Z,96122.31
2023-05-20T19:38:35.829Z,96127.44
2023-05-20T19:41:04.003Z,96131.75
2023-05-20T19:43:33.287Z,96118.56
2023-05-20T19:46:01.132Z,96132.56
2023-05-20T19:48:28.932Z,96129.31
2023-05-20T19:50:56.924Z,96128.53
2023-05-20T19:53:24.712Z,96130.13
2023-05-20T19:55:52.545Z,96122.88
2023-05-20T19:58:20.307Z,96127.16
2023-05-20T20:00:49.735Z,96122.31
2023-05-20T20:03:17.606Z,96112.63
2023-05-20T20:05:45.409Z,96121.25
2023-05-20T20:08:13.295Z,96119.06
2023-05-20T20:10:41.417Z,96116.34
2023-05-20T20:13:09.191Z,96116.91
2023-05-20T20:15:37.126Z,96121.47
2023-05-20T20:18:06.528Z,96116.09
2023-05-20T20:20:39.815Z,96122.81
2023-05-20T20:23:08.341Z,96116.91
2023-05-20T20:25:38.803Z,96111.50
2023-05-20T20:28:06.895Z,96117.16
2023-05-20T20:30:35.227Z,96112.56
2023-05-20T20:33:06.277Z,96105.56
2023-05-20T20:35:36.386Z,96107.19
2023-05-20T20:38:08.830Z,96104.47
2023-05-20T20:40:39.684Z,96102.59
2023-05-20T20:43:08.129Z,96098.56
2023-05-20T20:45:36.848Z,96098.53
2023-05-20T20:48:07.763Z,96091.00
2023-05-20T20:50:37.582Z,96101.50
2023-05-20T20:53:05.381Z,96089.38
2023-05-20T20:55:34.408Z,96086.66
2023-05-20T20:58:05.117Z,96090.97
2023-05-20T21:00:33.748Z,96089.38
2023-05-20T21:03:01.678Z,96089.66
2023-05-20T21:05:29.552Z,96087.25
2023-05-20T21:07:59.960Z,96090.19
2023-05-20T21:10:29.576Z,96093.16
2023-05-20T21:12:57.976Z,96077.00
2023-05-20T21:15:26.364Z,96068.94
2023-05-20T21:17:54.792Z,96082.69
2023-05-20T21:20:22.610Z,96081.84
2023-05-20T21:22:50.779Z,96082.44
2023-05-20T21:25:20.065Z,96084.03
2023-05-20T21:27:47.928Z,96072.44
2023-05-20T21:30:17.310Z,96079.19
2023-05-20T21:32:45.090Z,96066.78
2023-05-20T21:35:13.354Z,96046.31
2023-05-20T21:37:41.170Z,96075.13
2023-05-20T21:40:09.914Z,96085.13
2023-05-20T21:42:39.110Z,96072.16
2023-05-20T21:45:08.314Z,96074.06
2023-05-20T21:47:36.182Z,96074.31
2023-05-20T21:50:04.340Z,96071.88
2023-05-20T21:52:32.218Z,96063.56
2023-05-20T21:55:00.436Z,96065.72
2023-05-20T21:57:28.296Z,96067.34
2023-05-20T21:59:57.493Z,96071.63
2023-05-20T22:02:25.427Z,96071.13
2023-05-20T22:04:53.694Z,96070.56
2023-05-20T22:07:22.102Z,96062.50
2023-05-20T22:09:50.387Z,96070.56
2023-05-20T22:12:20.457Z,96061.69
2023-05-20T22:14:48.229Z,96064.34
2023-05-20T22:17:18.638Z,96052.25
2023-05-20T22:19:47.983Z,96050.63
2023-05-20T22:22:15.831Z,96051.97
2023-05-20T22:24:44.051Z,96048.72
2023-05-20T22:27:11.888Z,96037.69
2023-05-20T22:29:39.684Z,96044.41
2023-05-20T22:32:07.987Z,96044.31
2023-05-20T22:34:39.191Z,96042.69
2023-05-20T22:37:07.561Z,96031.19
2023-05-20T22:39:35.308Z,96031.97
2023-05-20T22:42:03.030Z,96033.88
2023-05-20T22:44:30.804Z,96043.75
2023-05-20T22:46:58.551Z,96027.88
2023-05-20T22:49:28.069Z,96045.13
2023-05-20T22:51:59.240Z,96037.84
2023-05-20T22:54:27.186Z,96043.47
2023-05-20T22:56:58.005Z,96043.47
2023-05-20T22:59:26.774Z,96031.34
2023-05-20T23:01:54.665Z,96036.47
2023-05-20T23:04:22.524Z,96040.78
2023-05-20T23:06:53.523Z,96035.91
2023-05-20T23:09:23.096Z,96041.81
2023-05-20T23:11:50.845Z,96036.13
2023-05-20T23:14:19.932Z,96032.13
2023-05-20T23:16:47.833Z,96026.75
2023-05-20T23:19:16.148Z,96026.47
2023-05-20T23:21:44.376Z,96026.19
2023-05-20T23:24:12.837Z,96023.22
2023-05-20T23:26:41.951Z,96024.59
2023-05-20T23:29:10.203Z,96020.00
2023-05-20T23:31:38.125Z,96023.00
2023-05-20T23:34:06.040Z,96023.50
2023-05-20T23:36:34.456Z,96017.59
2023-05-20T23:39:02.682Z,96010.34
2023-05-20T23:41:30.632Z,96025.63
2023-05-20T23:43:59.766Z,96026.19
2023-05-20T23:46:27.692Z,96021.84
2023-05-20T23:48:55.533Z,96020.81
2023-05-20T23:51:23.333Z,96019.47
2023-05-20T23:53:51.303Z,95998.75
2023-05-20T23:56:19.002Z,96022.16
2023-05-20T23:58:47.268Z,96022.94
